createdAt,value
2022-09-28T00:01:14.545Z,5.50
2022-09-28T00:03:41.367Z,4.30
2022-09-28T00:06:10.932Z,5.53
2022-09-28T00:08:37.721Z,5.85
2022-09-28T00:11:06.336Z,5.57
2022-09-28T00:13:33.406Z,5.75
2022-09-28T00:16:00.079Z,5.88
2022-09-28T00:18:26.909Z,6.35
2022-09-28T00:21:14.797Z,5.95
2022-09-28T00:24:00.906Z,6.28
2022-09-28T00:26:32.075Z,7.07
2022-09-28T00:29:01.090Z,6.70
2022-09-28T00:31:31.682Z,6.70
2022-09-28T00:34:00.371Z,7.93
2022-09-28T00:36:29.311Z,8.18
2022-09-28T00:38:56.823Z,8.05
2022-09-28T00:41:25.268Z,11.10
2022-09-28T00:43:52.499Z,10.35
2022-09-28T00:46:32.425Z,11.45
2022-09-28T00:49:03.518Z,11.57
2022-09-28T00:51:32.184Z,12.57
2022-09-28T00:54:01.063Z,12.77
2022-09-28T00:56:30.767Z,12.60
2022-09-28T00:58:59.563Z,13.43
2022-09-28T01:01:27.724Z,11.93
2022-09-28T01:03:54.782Z,13.20
2022-09-28T01:06:23.245Z,13.07
2022-09-28T01:08:51.863Z,13.07
2022-09-28T01:11:19.608Z,13.10
2022-09-28T01:13:48.061Z,12.80
2022-09-28T01:16:35.828Z,11.95
2022-09-28T01:19:52.800Z,11.55
2022-09-28T01:22:32.022Z,10.82
2022-09-28T01:25:05.114Z,11.13
2022-09-28T01:27:40.866Z,11.00
2022-09-28T01:30:21.655Z,10.93
2022-09-28T01:33:00.551Z,10.68
2022-09-28T01:35:35.578Z,10.95
2022-09-28T01:38:13.398Z,11.40
2022-09-28T01:40:40.833Z,10.35
2022-09-28T01:43:15.292Z,10.40
2022-09-28T01:45:49.045Z,9.77
2022-09-28T01:48:24.041Z,10.43
2022-09-28T01:50:53.959Z,10.82
2022-09-28T01:53:36.500Z,10.18
2022-09-28T01:56:29.022Z,10.48
2022-09-28T01:59:12.950Z,8.77
2022-09-28T02:01:44.410Z,9.02
2022-09-28T02:04:21.047Z,9.70
2022-09-28T02:07:19.547Z,9.25
2022-09-28T02:09:49.620Z,9.00
2022-09-28T02:12:22.608Z,8.10
2022-09-28T02:14:49.711Z,9.00
2022-09-28T02:17:16.644Z,8.70
2022-09-28T02:19:47.111Z,8.77
2022-09-28T02:22:24.428Z,9.27
2022-09-28T02:25:31.189Z,10.00
2022-09-28T02:27:59.474Z,9.23
2022-09-28T02:30:27.396Z,9.02
2022-09-28T02:32:58.128Z,9.32
2022-09-28T02:35:24.845Z,8.50
2022-09-28T02:37:51.755Z,8.95
2022-09-28T02:40:21.760Z,9.90
2022-09-28T02:43:31.770Z,9.57
2022-09-28T02:46:29.538Z,9.50
2022-09-28T02:49:28.090Z,9.55
2022-09-28T02:52:03.579Z,10.20
2022-09-28T02:54:33.122Z,10.38
2022-09-28T02:57:24.974Z,10.27
2022-09-28T03:00:12.446Z,9.50
2022-09-28T03:02:42.899Z,9.88
2022-09-28T03:05:20.920Z,9.65
2022-09-28T03:07:58.942Z,10.50
2022-09-28T03:10:39.219Z,10.85
2022-09-28T03:13:06.198Z,10.55
2022-09-28T03:15:35.251Z,9.73
2022-09-28T03:18:02.576Z,10.13
2022-09-28T03:20:30.479Z,10.25
2022-09-28T03:23:20.122Z,10.63
2022-09-28T03:25:44.199Z,11.45
2022-09-28T03:28:10.830Z,10.80
2022-09-28T03:30:40.191Z,11.43
2022-09-28T03:33:07.208Z,11.75
2022-09-28T03:35:34.573Z,11.35
2022-09-28T03:38:01.362Z,11.35
2022-09-28T03:40:30.361Z,11.35
2022-09-28T03:42:57.067Z,10.07
2022-09-28T03:45:23.656Z,12.13
2022-09-28T03:47:51.848Z,11.73
2022-09-28T03:50:18.968Z,10.43
2022-09-28T03:52:45.702Z,11.25
2022-09-28T03:55:12.674Z,10.48
2022-09-28T03:57:39.369Z,11.15
2022-09-28T04:00:06.942Z,10.63
2022-09-28T04:02:40.415Z,11.52
2022-09-28T04:05:07.675Z,11.63
2022-09-28T04:07:34.411Z,11.70
2022-09-28T04:10:01.188Z,11.65
2022-09-28T04:12:28.032Z,11.73
2022-09-28T04:14:54.733Z,11.50
2022-09-28T04:17:21.401Z,13.07
2022-09-28T04:19:48.402Z,10.95
2022-09-28T04:22:25.281Z,10.73
2022-09-28T04:24:52.188Z,11.60
2022-09-28T04:27:37.430Z,13.32
2022-09-28T04:30:04.759Z,12.57
2022-09-28T04:32:33.519Z,12.90
2022-09-28T04:35:00.452Z,14.27
2022-09-28T04:37:27.125Z,13.90
2022-09-28T04:39:53.761Z,15.30
2022-09-28T04:42:20.631Z,13.65
2022-09-28T04:44:49.382Z,14.75
2022-09-28T04:47:16.726Z,14.98
2022-09-28T04:50:10.928Z,15.48
2022-09-28T04:52:57.677Z,13.40
2022-09-28T04:55:24.350Z,13.65
2022-09-28T04:57:51.011Z,14.38
2022-09-28T05:00:17.758Z,13.48
2022-09-28T05:02:57.530Z,12.82
2022-09-28T05:05:47.831Z,12.20
2022-09-28T05:08:30.805Z,12.82
2022-09-28T05:11:01.946Z,13.32
2022-09-28T05:13:29.311Z,12.55
2022-09-28T05:16:01.782Z,13.48
2022-09-28T05:18:32.719Z,13.73
2022-09-28T05:21:04.567Z,13.70
2022-09-28T05:23:31.378Z,14.93
2022-09-28T05:26:01.907Z,13.13
2022-09-28T05:28:31.531Z,14.82
2022-09-28T05:31:17.001Z,13.50
2022-09-28T05:34:09.710Z,13.45
2022-09-28T05:36:37.095Z,12.25
2022-09-28T05:39:04.143Z,13.82
2022-09-28T05:41:32.012Z,14.93
2022-09-28T05:44:00.128Z,13.90
2022-09-28T05:46:26.887Z,14.10
2022-09-28T05:48:54.525Z,14.32
2022-09-28T05:51:21.279Z,13.90
2022-09-28T05:53:48.132Z,14.93
2022-09-28T05:56:17.412Z,13.93
2022-09-28T05:58:48.372Z,14.23
2022-09-28T06:01:17.661Z,13.82
2022-09-28T06:03:45.239Z,13.15
2022-09-28T06:06:11.925Z,12.75
2022-09-28T06:08:43.285Z,14.18
2022-09-28T06:11:45.452Z,14.40
2022-09-28T06:14:21.715Z,14.52
2022-09-28T06:16:48.501Z,13.10
2022-09-28T06:19:17.058Z,13.85
2022-09-28T06:21:58.409Z,12.90
2022-09-28T06:24:26.178Z,14.95
2022-09-28T06:26:53.043Z,14.90
2022-09-28T06:29:21.229Z,14.82
2022-09-28T06:31:47.878Z,14.85
2022-09-28T06:34:14.951Z,16.58
2022-09-28T06:36:41.736Z,15.48
2022-09-28T06:39:10.094Z,15.75
2022-09-28T06:41:37.875Z,14.98
2022-09-28T06:44:13.885Z,13.98
2022-09-28T06:47:02.758Z,14.82
2022-09-28T06:49:55.383Z,14.85
2022-09-28T06:52:40.950Z,14.73
2022-09-28T06:55:24.748Z,14.60
2022-09-28T06:58:03.338Z,12.85
2022-09-28T07:00:34.070Z,12.48
2022-09-28T07:03:07.285Z,11.88
2022-09-28T07:05:50.487Z,11.55
2022-09-28T07:08:32.367Z,12.38
2022-09-28T07:11:39.652Z,10.95
2022-09-28T07:14:44.314Z,11.60
2022-09-28T07:17:14.042Z,11.55
2022-09-28T07:19:42.356Z,12.68
2022-09-28T07:22:18.159Z,11.75
2022-09-28T07:24:47.022Z,12.45
2022-09-28T07:27:39.574Z,11.75
2022-09-28T07:30:43.375Z,11.93
2022-09-28T07:33:17.913Z,11.55
2022-09-28T07:36:02.923Z,11.88
2022-09-28T07:38:30.291Z,11.73
2022-09-28T07:41:12.601Z,13.45
2022-09-28T07:43:45.915Z,11.90
2022-09-28T07:46:12.857Z,12.95
2022-09-28T07:48:46.073Z,12.43
2022-09-28T07:51:46.158Z,12.68
2022-09-28T07:54:28.735Z,14.55
2022-09-28T07:57:08.674Z,14.48
2022-09-28T08:00:01.955Z,13.77
2022-09-28T08:02:48.967Z,13.02
2022-09-28T08:05:23.795Z,14.68
2022-09-28T08:07:50.739Z,13.40
2022-09-28T08:10:17.993Z,12.88
2022-09-28T08:13:26.995Z,14.23
2022-09-28T08:16:03.216Z,12.95
2022-09-28T08:18:40.442Z,12.50
2022-09-28T08:21:33.512Z,11.38
2022-09-28T08:24:02.041Z,13.23
2022-09-28T08:26:29.439Z,13.27
2022-09-28T08:28:58.505Z,14.32
2022-09-28T08:31:51.312Z,13.80
2022-09-28T08:34:39.889Z,13.85
2022-09-28T08:37:25.381Z,13.85
2022-09-28T08:40:18.461Z,12.95
2022-09-28T08:43:40.616Z,12.82
2022-09-28T08:46:39.788Z,13.52
2022-09-28T08:49:34.879Z,13.20
2022-09-28T08:52:37.236Z,14.30
2022-09-28T08:55:37.510Z,13.63
2022-09-28T08:58:22.941Z,14.35
2022-09-28T09:00:51.709Z,12.70
2022-09-28T09:03:36.015Z,14.13
2022-09-28T09:06:41.016Z,13.18
2022-09-28T09:10:18.201Z,13.82
2022-09-28T09:13:12.345Z,13.20
2022-09-28T09:16:14.637Z,11.95
2022-09-28T09:19:26.496Z,12.60
2022-09-28T09:22:17.880Z,11.35
2022-09-28T09:24:51.393Z,12.10
2022-09-28T09:27:44.699Z,11.75
2022-09-28T09:30:22.076Z,10.85
2022-09-28T09:33:13.877Z,11.63
2022-09-28T09:36:36.211Z,11.70
2022-09-28T09:39:42.060Z,10.25
2022-09-28T09:42:42.548Z,11.30
2022-09-28T09:45:44.156Z,11.55
2022-09-28T09:48:35.673Z,11.98
2022-09-28T09:51:06.819Z,10.65
2022-09-28T09:53:42.277Z,10.20
2022-09-28T09:56:15.465Z,10.25
2022-09-28T09:59:08.448Z,10.63
2022-09-28T10:01:41.048Z,12.20
2022-09-28T10:04:36.926Z,9.90
2022-09-28T10:07:22.602Z,8.82
2022-09-28T10:09:51.816Z,9.77
2022-09-28T10:12:27.532Z,10.70
2022-09-28T10:14:56.042Z,9.48
2022-09-28T10:17:27.408Z,9.30
2022-09-28T10:20:14.129Z,8.95
2022-09-28T10:23:03.394Z,8.85
2022-09-28T10:25:33.557Z,9.48
2022-09-28T10:28:01.254Z,8.20
2022-09-28T10:30:28.556Z,7.75
2022-09-28T10:33:00.920Z,7.15
2022-09-28T10:35:41.478Z,8.73
2022-09-28T10:38:17.866Z,9.98
2022-09-28T10:41:00.980Z,11.77
2022-09-28T10:44:08.654Z,13.13
2022-09-28T10:47:01.905Z,12.75
2022-09-28T10:49:47.572Z,13.00
2022-09-28T10:52:38.936Z,13.00
2022-09-28T10:55:20.952Z,11.43
2022-09-28T10:57:48.248Z,12.30
2022-09-28T11:00:44.733Z,11.50
2022-09-28T11:03:25.510Z,9.73
2022-09-28T11:06:03.039Z,10.40
2022-09-28T11:08:35.573Z,10.18
2022-09-28T11:11:05.251Z,10.55
2022-09-28T11:13:41.505Z,9.70
2022-09-28T11:16:20.152Z,9.27
2022-09-28T11:18:47.263Z,7.63
2022-09-28T11:21:16.973Z,6.63
2022-09-28T11:24:01.473Z,6.43
2022-09-28T11:26:49.856Z,5.65
2022-09-28T11:29:42.355Z,5.00
2022-09-28T11:32:18.528Z,4.47
2022-09-28T11:35:04.266Z,4.05
2022-09-28T11:38:04.609Z,3.63
2022-09-28T11:41:36.825Z,8.68
2022-09-28T11:44:04.229Z,5.88
2022-09-28T11:46:37.185Z,6.35
2022-09-28T11:49:43.741Z,4.75
2022-09-28T11:52:40.673Z,5.35
2022-09-28T11:55:19.371Z,5.13
2022-09-28T11:57:50.721Z,5.50
2022-09-28T12:00:25.229Z,5.60
2022-09-28T12:03:06.528Z,5.30
2022-09-28T12:05:34.326Z,5.68
2022-09-28T12:08:27.799Z,6.90
2022-09-28T12:11:12.810Z,5.40
2022-09-28T12:14:00.842Z,4.78
2022-09-28T12:17:12.439Z,4.80
2022-09-28T12:20:33.665Z,4.90
2022-09-28T12:23:05.070Z,5.60
2022-09-28T12:25:40.832Z,4.20
2022-09-28T12:28:32.263Z,4.15
2022-09-28T12:31:03.787Z,4.13
2022-09-28T12:33:30.520Z,4.40
2022-09-28T12:36:19.680Z,4.28
2022-09-28T12:39:35.460Z,3.60
2022-09-28T12:42:37.000Z,3.60
2022-09-28T12:45:20.419Z,3.72
2022-09-28T12:48:14.716Z,2.97
2022-09-28T12:50:58.093Z,3.50
2022-09-28T12:53:25.959Z,3.78
2022-09-28T12:56:34.627Z,7.68
2022-09-28T12:59:18.845Z,3.95
2022-09-28T13:01:54.772Z,3.75
2022-09-28T13:04:44.372Z,4.00
2022-09-28T13:07:49.059Z,4.20
2022-09-28T13:10:32.617Z,4.03
2022-09-28T13:13:29.723Z,4.20
2022-09-28T13:16:02.489Z,4.53
2022-09-28T13:18:42.167Z,4.40
2022-09-28T13:21:32.096Z,4.50
2022-09-28T13:24:20.689Z,4.70
2022-09-28T13:26:48.815Z,4.97
2022-09-28T13:29:20.214Z,5.30
2022-09-28T13:31:52.727Z,5.03
2022-09-28T13:34:22.676Z,5.93
2022-09-28T13:37:20.247Z,5.50
2022-09-28T13:39:52.034Z,5.72
2022-09-28T13:42:33.485Z,5.38
2022-09-28T13:45:11.787Z,5.70
2022-09-28T13:47:56.713Z,5.18
2022-09-28T13:50:35.377Z,5.28
2022-09-28T13:53:16.369Z,5.75
2022-09-28T13:55:58.480Z,5.07
2022-09-28T13:58:30.811Z,4.00
2022-09-28T14:01:11.926Z,4.18
2022-09-28T14:03:57.770Z,4.30
2022-09-28T14:06:29.928Z,4.93
2022-09-28T14:09:21.874Z,4.35
2022-09-28T14:12:05.264Z,4.40
2022-09-28T14:14:50.602Z,4.25
2022-09-28T14:17:27.358Z,4.15
2022-09-28T14:20:03.484Z,3.85
2022-09-28T14:23:02.557Z,4.20
2022-09-28T14:25:42.789Z,4.05
2022-09-28T14:28:43.352Z,4.53
2022-09-28T14:31:17.577Z,4.10
2022-09-28T14:34:18.959Z,3.88
2022-09-28T14:37:07.377Z,4.78
2022-09-28T14:39:55.448Z,4.47
2022-09-28T14:42:44.240Z,4.20
2022-09-28T14:45:10.815Z,4.80
2022-09-28T14:47:38.691Z,6.00
2022-09-28T14:50:38.183Z,7.10
2022-09-28T14:56:12.890Z,5.88
2022-09-28T14:58:45.431Z,6.97
2022-09-28T15:01:22.962Z,6.70
2022-09-28T15:03:56.308Z,6.05
2022-09-28T15:06:24.858Z,5.97
2022-09-28T15:08:51.605Z,5.20
2022-09-28T15:11:21.218Z,15.55
2022-09-28T15:14:06.454Z,5.57
2022-09-28T15:16:39.693Z,5.13
2022-09-28T15:19:18.758Z,5.13
2022-09-28T15:21:48.176Z,6.60
2022-09-28T15:25:01.405Z,5.68
2022-09-28T15:27:37.397Z,4.85
2022-09-28T15:30:28.552Z,4.68
2022-09-28T15:32:57.232Z,4.90
2022-09-28T15:35:26.446Z,4.80
2022-09-28T15:37:55.061Z,4.53
2022-09-28T15:40:32.475Z,4.88
2022-09-28T15:42:59.698Z,5.40
2022-09-28T15:45:35.849Z,5.43
2022-09-28T15:48:31.085Z,5.45
2022-09-28T15:51:03.383Z,5.45
2022-09-28T15:53:31.384Z,5.80
2022-09-28T15:56:09.502Z,6.03
2022-09-28T15:58:37.858Z,6.63
2022-09-28T16:01:37.162Z,6.90
2022-09-28T16:04:36.464Z,7.18
2022-09-28T16:07:21.444Z,6.82
2022-09-28T16:10:13.716Z,7.60
2022-09-28T16:12:42.165Z,6.97
2022-09-28T16:15:28.695Z,8.02
2022-09-28T16:17:58.319Z,7.07
2022-09-28T16:20:36.562Z,8.25
2022-09-28T16:23:26.361Z,8.90
2022-09-28T16:26:05.948Z,12.80
2022-09-28T16:28:38.888Z,10.95
2022-09-28T16:31:29.021Z,10.15
2022-09-28T16:34:16.432Z,15.60
2022-09-28T16:36:45.563Z,13.45
2022-09-28T16:39:16.668Z,13.13
2022-09-28T16:41:47.450Z,9.98
2022-09-28T16:44:20.654Z,9.25
2022-09-28T16:46:48.027Z,7.90
2022-09-28T16:49:19.611Z,6.28
2022-09-28T16:51:49.104Z,6.40
2022-09-28T16:54:42.530Z,5.82
2022-09-28T16:57:20.452Z,4.90
2022-09-28T16:59:51.637Z,4.47
2022-09-28T17:02:45.769Z,4.53
2022-09-28T17:05:10.346Z,5.45
2022-09-28T17:07:37.135Z,4.72
2022-09-28T17:10:14.087Z,4.65
2022-09-28T17:12:41.781Z,4.47
2022-09-28T17:15:08.787Z,5.00
2022-09-28T17:17:35.478Z,4.45
2022-09-28T17:20:28.623Z,4.82
2022-09-28T17:23:04.605Z,4.90
2022-09-28T17:25:40.386Z,5.30
2022-09-28T17:28:17.578Z,5.40
2022-09-28T17:30:44.278Z,5.65
2022-09-28T17:33:12.557Z,5.13
2022-09-28T17:35:41.300Z,6.20
2022-09-28T17:38:11.741Z,6.75
2022-09-28T17:40:38.755Z,5.43
2022-09-28T17:43:07.907Z,6.97
2022-09-28T17:45:41.965Z,8.60
2022-09-28T17:48:15.760Z,6.03
2022-09-28T17:50:46.469Z,5.10
2022-09-28T17:53:13.934Z,4.93
2022-09-28T17:55:43.770Z,5.03
2022-09-28T17:58:23.688Z,5.53
2022-09-28T18:00:51.247Z,5.88
2022-09-28T18:03:42.617Z,4.88
2022-09-28T18:06:21.302Z,4.43
2022-09-28T18:08:48.260Z,5.28
2022-09-28T18:11:17.406Z,4.88
2022-09-28T18:13:46.239Z,4.93
2022-09-28T18:16:13.895Z,4.10
2022-09-28T18:18:41.072Z,4.45
2022-09-28T18:21:09.508Z,5.38
2022-09-28T18:23:42.143Z,6.07
2022-09-28T18:26:16.204Z,5.88
2022-09-28T18:28:42.991Z,5.40
2022-09-28T18:31:11.246Z,6.28
2022-09-28T18:33:39.663Z,5.78
2022-09-28T18:36:07.603Z,6.00
2022-09-28T18:38:36.416Z,5.03
2022-09-28T18:41:10.898Z,5.25
2022-09-28T18:43:37.736Z,4.50
2022-09-28T18:46:12.672Z,3.85
2022-09-28T18:48:40.574Z,4.20
2022-09-28T18:51:11.884Z,4.28
2022-09-28T18:53:46.884Z,3.70
2022-09-28T18:56:17.064Z,4.10
2022-09-28T18:58:50.252Z,4.72
2022-09-28T19:01:35.469Z,5.75
2022-09-28T19:04:15.524Z,6.65
2022-09-28T19:06:48.751Z,6.47
2022-09-28T19:09:22.246Z,6.45
2022-09-28T19:11:52.216Z,6.90
2022-09-28T19:14:19.495Z,6.30
2022-09-28T19:16:46.556Z,6.85
2022-09-28T19:19:17.179Z,6.25
2022-09-28T19:21:46.067Z,5.75
2022-09-28T19:24:18.688Z,6.82
2022-09-28T19:26:46.632Z,5.43
2022-09-28T19:29:14.013Z,5.82
2022-09-28T19:31:41.212Z,5.18
2022-09-28T19:34:11.807Z,5.00
2022-09-28T19:36:40.849Z,4.60
2022-09-28T19:39:08.823Z,4.68
2022-09-28T19:41:44.802Z,4.75
2022-09-28T19:44:15.839Z,6.32
2022-09-28T19:46:49.085Z,10.57
2022-09-28T19:49:19.704Z,13.43
2022-09-28T19:52:11.598Z,8.90
2022-09-28T19:54:36.882Z,7.13
2022-09-28T19:57:07.725Z,5.57
2022-09-28T19:59:38.848Z,6.10
2022-09-28T20:02:07.161Z,6.07
2022-09-28T20:04:34.820Z,5.93
2022-09-28T20:07:02.002Z,7.25
2022-09-28T20:09:29.134Z,8.43
2022-09-28T20:11:55.927Z,8.75
2022-09-28T20:14:24.602Z,10.07
2022-09-28T20:16:53.128Z,9.18
2022-09-28T20:19:22.962Z,7.25
2022-09-28T20:21:50.107Z,7.13
2022-09-28T20:24:17.270Z,6.78
2022-09-28T20:26:44.714Z,7.00
2022-09-28T20:29:14.962Z,7.30
2022-09-28T20:31:42.604Z,7.68
2022-09-28T20:34:10.501Z,6.88
2022-09-28T20:36:37.265Z,6.47
2022-09-28T20:39:04.852Z,7.03
2022-09-28T20:41:36.788Z,8.63
2022-09-28T20:44:05.908Z,7.30
2022-09-28T20:46:35.445Z,7.93
2022-09-28T20:49:02.763Z,8.10
2022-09-28T20:51:29.474Z,9.55
2022-09-28T20:53:58.576Z,10.82
2022-09-28T20:56:30.575Z,9.50
2022-09-28T20:58:57.721Z,10.10
2022-09-28T21:01:26.601Z,10.27
2022-09-28T21:03:55.306Z,9.07
2022-09-28T21:06:24.828Z,9.73
2022-09-28T21:08:59.264Z,10.25
2022-09-28T21:11:27.070Z,8.52
2022-09-28T21:13:56.000Z,8.70
2022-09-28T21:16:22.851Z,8.73
2022-09-28T21:18:49.741Z,8.57
2022-09-28T21:21:18.018Z,8.10
2022-09-28T21:23:45.006Z,8.10
2022-09-28T21:26:14.045Z,8.00
2022-09-28T21:28:40.883Z,7.18
2022-09-28T21:31:11.001Z,6.80
2022-09-28T21:33:37.950Z,6.40
2022-09-28T21:36:07.320Z,6.70
2022-09-28T21:38:34.898Z,6.47
2022-09-28T21:41:02.556Z,6.68
2022-09-28T21:43:31.650Z,6.40
2022-09-28T21:45:58.604Z,6.18
2022-09-28T21:48:27.118Z,7.13
2022-09-28T21:50:56.228Z,6.40
2022-09-28T21:53:27.887Z,5.35
2022-09-28T21:55:55.807Z,6.10
2022-09-28T21:58:26.934Z,6.38
2022-09-28T22:01:03.080Z,6.40
2022-09-28T22:03:30.977Z,6.30
2022-09-28T22:05:58.435Z,5.93
2022-09-28T22:08:26.434Z,6.03
2022-09-28T22:11:05.731Z,5.45
2022-09-28T22:13:41.664Z,5.28
2022-09-28T22:16:09.603Z,5.38
2022-09-28T22:18:36.563Z,4.95
2022-09-28T22:21:11.500Z,5.10
2022-09-28T22:23:38.919Z,5.70
2022-09-28T22:26:12.946Z,6.18
2022-09-28T22:28:45.186Z,5.95
2022-09-28T22:31:11.996Z,5.45
2022-09-28T22:33:38.649Z,5.65
2022-09-28T22:36:05.556Z,5.50
2022-09-28T22:38:32.904Z,6.15
2022-09-28T22:40:59.565Z,5.53
2022-09-28T22:43:26.957Z,5.82
2022-09-28T22:46:11.608Z,5.50
2022-09-28T22:48:38.726Z,5.53
2022-09-28T22:51:06.868Z,5.68
2022-09-28T22:53:35.258Z,5.88
2022-09-28T22:56:05.247Z,5.00
2022-09-28T22:58:33.167Z,5.38
2022-09-28T23:01:12.505Z,5.25
2022-09-28T23:03:42.772Z,5.82
2022-09-28T23:06:11.015Z,6.13
2022-09-28T23:08:39.106Z,5.63
2022-09-28T23:11:06.470Z,5.85
2022-09-28T23:13:35.128Z,5.53
2022-09-28T23:16:06.482Z,6.85
2022-09-28T23:18:35.377Z,6.65
2022-09-28T23:21:07.255Z,6.68
2022-09-28T23:23:34.446Z,6.80
2022-09-28T23:26:09.317Z,6.32
2022-09-28T23:28:35.930Z,5.97
2022-09-28T23:31:20.836Z,6.10
2022-09-28T23:33:47.687Z,6.63
2022-09-28T23:36:14.391Z,6.32
2022-09-28T23:38:41.526Z,6.93
2022-09-28T23:41:08.561Z,7.10
2022-09-28T23:43:36.195Z,7.60
2022-09-28T23:46:04.231Z,7.80
2022-09-28T23:48:30.978Z,8.73
2022-09-28T23:50:57.610Z,8.68
2022-09-28T23:53:24.258Z,8.70
2022-09-28T23:55:50.992Z,7.90
2022-09-28T23:58:17.682Z,8.05
